createdAt,value
2019-01-17T00:04:38.182Z,97258.62
2019-01-17T00:07:40.242Z,97262.75
2019-01-17T00:10:40.175Z,97274.73
2019-01-17T00:13:29.534Z,97280.53
2019-01-17T00:16:37.774Z,97276.22
2019-01-17T00:19:49.162Z,97279.84
2019-01-17T00:22:57.417Z,97275.05
2019-01-17T00:25:46.894Z,97272.00
2019-01-17T14:35:58.264Z,97119.03
2019-01-17T14:38:41.702Z,97119.29
2019-01-17T14:41:12.228Z,97121.19
2019-01-17T14:43:54.011Z,97127.95
2019-01-17T14:46:24.481Z,97124.25
2019-01-17T14:49:13.965Z,97110.38
2019-01-17T14:55:05.843Z,97125.87
2019-01-17T14:57:43.626Z,97133.03
2019-01-17T15:03:16.890Z,97143.13
2019-01-17T15:08:37.927Z,97157.42
2019-01-17T15:11:08.450Z,97168.20
2019-01-17T15:13:39.018Z,97177.39
2019-01-17T15:16:28.314Z,97182.34
2019-01-17T15:19:39.691Z,97174.73
2019-01-17T15:22:28.980Z,97178.48
2019-01-17T15:25:18.485Z,97179.64
2019-01-17T15:28:09.921Z,97182.63
2019-01-17T15:30:40.243Z,97178.34
2019-01-17T15:33:29.436Z,97181.78
2019-01-17T15:35:59.717Z,97181.71
2019-01-17T15:38:49.203Z,97171.34
2019-01-17T15:41:40.799Z,97034.55
2019-01-17T15:44:30.385Z,97187.52
2019-01-17T15:47:22.908Z,97200.12
2019-01-17T15:50:07.059Z,97196.14
2019-01-17T15:52:37.684Z,97217.03
2019-01-17T15:55:10.239Z,97211.91
2019-01-17T15:58:01.633Z,97213.32
2019-01-17T16:00:39.830Z,97219.61
2019-01-17T16:03:30.496Z,97214.53
2019-01-17T16:06:17.887Z,97223.23
2019-01-17T16:09:10.550Z,97232.05
2019-01-17T16:11:19.998Z,97232.23
2019-01-17T16:17:01.205Z,97243.84
2019-01-17T16:19:51.568Z,97240.97
2019-01-17T16:23:01.235Z,97246.34
2019-01-17T16:25:50.280Z,97237.06
2019-01-17T16:28:47.826Z,97256.45
2019-01-17T16:31:25.981Z,97272.32
2019-01-17T16:33:58.083Z,97281.49
2019-01-17T16:36:31.583Z,97284.45
2019-01-17T16:41:39.196Z,97267.70
2019-01-17T16:44:28.422Z,97270.70
2019-01-17T16:46:58.720Z,97267.04
2019-01-17T16:49:48.246Z,97265.07
2019-01-17T16:52:26.448Z,97264.95
2019-01-17T16:55:16.487Z,97264.31
2019-01-17T16:58:08.305Z,97268.95
2019-01-17T17:01:04.709Z,97263.25
2019-01-17T17:04:15.795Z,97262.01
2019-01-17T17:07:08.340Z,97259.07
2019-01-17T17:09:41.036Z,97284.63
2019-01-17T17:12:31.314Z,97283.56
2019-01-17T17:18:12.551Z,97289.31
2019-01-17T17:20:53.733Z,97303.13
2019-01-17T17:23:35.448Z,97312.17
2019-01-17T17:26:17.265Z,97258.69
2019-01-17T17:28:49.930Z,97341.63
2019-01-17T17:31:44.017Z,97357.25
2019-01-17T17:34:34.834Z,97385.75
2019-01-17T17:37:33.316Z,97399.93
2019-01-17T17:40:17.155Z,97442.81
2019-01-17T17:42:51.985Z,97411.53
2019-01-17T17:45:41.507Z,97430.56
2019-01-17T17:48:42.334Z,97414.00
2019-01-17T17:51:03.539Z,97413.44
2019-01-17T17:53:47.057Z,97408.55
2019-01-17T17:56:28.025Z,97415.94
2019-01-17T17:59:01.157Z,97417.87
2019-01-17T18:04:55.206Z,97434.52
2019-01-17T18:08:10.593Z,97436.52
2019-01-17T18:11:09.529Z,97444.53
2019-01-17T18:14:38.143Z,97456.03
2019-01-17T18:17:11.004Z,97467.54
2019-01-17T18:19:41.177Z,97467.06
2019-01-17T18:25:27.074Z,97471.73
2019-01-17T18:31:04.469Z,97479.58
2019-01-17T18:34:02.332Z,97477.75
2019-01-17T18:36:34.362Z,97407.64
2019-01-17T18:39:31.315Z,97473.75
2019-01-17T18:42:10.837Z,97480.13
2019-01-17T18:44:42.248Z,97489.40
2019-01-17T18:47:33.471Z,97481.91
2019-01-17T18:50:30.325Z,97486.90
2019-01-17T18:56:05.446Z,97494.31
2019-01-17T18:58:37.245Z,97494.00
2019-01-17T19:01:15.054Z,97493.63
2019-01-17T19:04:03.402Z,97496.84
2019-01-17T19:06:33.774Z,97501.30
2019-01-17T19:12:20.821Z,97514.27
2019-01-17T19:14:55.966Z,97384.34
2019-01-17T19:18:05.687Z,97523.10
2019-01-17T19:20:55.521Z,97522.10
2019-01-17T19:23:44.867Z,97384.66
2019-01-17T19:29:13.181Z,97543.10
2019-01-17T19:31:52.354Z,97542.33
2019-01-17T19:34:33.116Z,97544.25
2019-01-17T19:37:04.497Z,97543.86
2019-01-17T19:39:53.974Z,97554.80
2019-01-17T19:42:43.558Z,97556.54
2019-01-17T19:45:15.376Z,97560.86
2019-01-17T19:48:21.928Z,97564.27
2019-01-17T19:50:52.583Z,97572.42
2019-01-17T19:53:44.586Z,97577.20
2019-01-17T19:56:16.643Z,97571.13
2019-01-17T19:58:50.704Z,97577.27
2019-01-17T20:01:23.777Z,97567.39
2019-01-17T20:04:15.218Z,97569.34
2019-01-17T20:13:11.675Z,97571.59
2019-01-17T20:16:00.345Z,97581.84
2019-01-17T20:19:15.430Z,97490.73
2019-01-17T20:24:55.191Z,97584.52
2019-01-17T20:27:44.501Z,97584.84
2019-01-17T20:33:09.354Z,97597.52
2019-01-17T20:35:39.935Z,97598.97
2019-01-17T20:38:30.274Z,97603.57
2019-01-17T20:41:01.956Z,97450.39
2019-01-17T20:43:53.841Z,97619.73
2019-01-17T20:49:22.191Z,97654.31
2019-01-17T20:51:53.358Z,97645.09
2019-01-17T20:54:45.433Z,97654.25
2019-01-17T21:02:57.699Z,97661.84
2019-01-17T21:05:48.622Z,97635.50
2019-01-17T21:08:44.373Z,97634.28
2019-01-17T21:17:34.052Z,97647.20
2019-01-17T21:29:08.218Z,97653.44
2019-01-17T21:32:00.092Z,97665.98
2019-01-17T21:34:49.838Z,97668.12
2019-01-17T21:37:39.456Z,97526.52
2019-01-17T21:40:31.985Z,97680.02
2019-01-17T21:43:04.685Z,97674.86
2019-01-17T21:48:38.895Z,97691.30
2019-01-17T21:51:24.498Z,97698.73
2019-01-17T21:54:06.656Z,97696.16
2019-01-17T22:06:13.637Z,97709.56
2019-01-17T22:09:04.115Z,97710.79
2019-01-17T22:14:34.918Z,97730.76
2019-01-17T22:17:05.325Z,97735.41
2019-01-17T22:19:38.363Z,97743.76
2019-01-17T22:22:19.911Z,97750.98
2019-01-17T22:25:19.641Z,97765.72
2019-01-17T22:28:11.106Z,97782.22
2019-01-17T22:30:41.258Z,97788.83
2019-01-17T22:33:11.931Z,97787.98
2019-01-17T22:39:21.850Z,97786.77
2019-01-17T22:42:14.379Z,97790.87
2019-01-17T22:45:03.867Z,97792.51
2019-01-17T22:47:34.741Z,97791.19
2019-01-17T22:50:06.547Z,97799.63
2019-01-17T22:52:37.145Z,97794.67
2019-01-17T22:55:27.756Z,97792.91
2019-01-17T22:58:17.100Z,97795.11
2019-01-17T23:01:28.031Z,97806.27
2019-01-17T23:04:20.826Z,97805.05
2019-01-17T23:10:26.955Z,97807.17
2019-01-17T23:13:16.427Z,97808.30
2019-01-17T23:16:06.498Z,97808.23
2019-01-17T23:18:38.836Z,97804.97
2019-01-17T23:24:25.857Z,97811.23
2019-01-17T23:30:23.949Z,97819.52
2019-01-17T23:32:54.420Z,97813.27
2019-01-17T23:35:44.022Z,97820.72
2019-01-17T23:38:33.585Z,97823.64
2019-01-17T23:41:25.959Z,97818.73
2019-01-17T23:43:56.287Z,97831.11
2019-01-17T23:46:26.799Z,97831.23
2019-01-17T23:51:50.714Z,97835.07
2019-01-17T23:54:40.238Z,97831.80
2019-01-17T23:57:29.608Z,97834.37
